sensor_id;sensor_type;location;lat;lon;timestamp;temperature;humidity
12452;DHT22;6291;48.924;12.204;2023-04-06T00:01:28;0.10;99.90
12452;DHT22;6291;48.924;12.204;2023-04-06T00:06:31;0.00;99.90
12452;DHT22;6291;48.924;12.204;2023-04-06T00:11:36;0.10;99.90
12452;DHT22;6291;48.924;12.204;2023-04-06T00:16:39;0.10;99.90
12452;DHT22;6291;48.924;12.204;2023-04-06T00:21:43;0.00;99.90
12452;DHT22;6291;48.924;12.204;2023-04-06T00:26:48;0.00;99.90
12452;DHT22;6291;48.924;12.204;2023-04-06T00:31:51;0.00;99.90
12452;DHT22;6291;48.924;12.204;2023-04-06T00:36:54;0.00;99.90
12452;DHT22;6291;48.924;12.204;2023-04-06T00:42:00;0.30;99.90
12452;DHT22;6291;48.924;12.204;2023-04-06T00:47:04;-0.10;99.90
12452;DHT22;6291;48.924;12.204;2023-04-06T00:52:08;-0.20;99.90
12452;DHT22;6291;48.924;12.204;2023-04-06T00:57:13;-0.30;99.90
12452;DHT22;6291;48.924;12.204;2023-04-06T01:02:18;0.50;1.00
12452;DHT22;6291;48.924;12.204;2023-04-06T01:07:25;-0.40;1.00
12452;DHT22;6291;48.924;12.204;2023-04-06T01:12:47;0.00;1.00
12452;DHT22;6291;48.924;12.204;2023-04-06T01:17:57;-0.40;1.00
12452;DHT22;6291;48.924;12.204;2023-04-06T01:23:02;-0.60;1.00
12452;DHT22;6291;48.924;12.204;2023-04-06T01:28:07;0.30;1.00
12452;DHT22;6291;48.924;12.204;2023-04-06T01:33:27;-0.60;1.00
12452;DHT22;6291;48.924;12.204;2023-04-06T01:38:37;-0.60;1.00
12452;DHT22;6291;48.924;12.204;2023-04-06T01:43:42;-0.70;1.00
12452;DHT22;6291;48.924;12.204;2023-04-06T01:48:45;-0.30;1.00
12452;DHT22;6291;48.924;12.204;2023-04-06T01:53:58;-0.80;1.00
12452;DHT22;6291;48.924;12.204;2023-04-06T01:59:40;-0.80;1.00
12452;DHT22;6291;48.924;12.204;2023-04-06T02:04:58;1.10;1.00
12452;DHT22;6291;48.924;12.204;2023-04-06T02:10:10;-0.90;1.00
12452;DHT22;6291;48.924;12.204;2023-04-06T02:15:14;-0.90;1.00
12452;DHT22;6291;48.924;12.204;2023-04-06T02:20:17;-0.90;1.00
12452;DHT22;6291;48.924;12.204;2023-04-06T02:25:22;-1.00;1.00
12452;DHT22;6291;48.924;12.204;2023-04-06T02:30:26;-1.00;1.00
12452;DHT22;6291;48.924;12.204;2023-04-06T02:35:30;-1.00;1.00
12452;DHT22;6291;48.924;12.204;2023-04-06T02:40:36;-3.00;1.00
12452;DHT22;6291;48.924;12.204;2023-04-06T02:45:50;-1.10;1.00
12452;DHT22;6291;48.924;12.204;2023-04-06T03:27:01;-1.60;1.00
12452;DHT22;6291;48.924;12.204;2023-04-06T03:32:05;-1.60;1.00
12452;DHT22;6291;48.924;12.204;2023-04-06T03:37:15;-1.60;1.00
12452;DHT22;6291;48.924;12.204;2023-04-06T03:42:26;-1.60;1.00
12452;DHT22;6291;48.924;12.204;2023-04-06T03:47:36;-1.60;1.00
12452;DHT22;6291;48.924;12.204;2023-04-06T03:52:42;-1.70;1.00
12452;DHT22;6291;48.924;12.204;2023-04-06T03:57:47;-0.20;1.00
12452;DHT22;6291;48.924;12.204;2023-04-06T04:02:52;-1.70;1.00
12452;DHT22;6291;48.924;12.204;2023-04-06T04:07:56;-1.60;1.00
12452;DHT22;6291;48.924;12.204;2023-04-06T04:13:03;-1.70;1.00
12452;DHT22;6291;48.924;12.204;2023-04-06T04:18:06;-1.80;1.00
12452;DHT22;6291;48.924;12.204;2023-04-06T04:23:10;-1.70;1.00
12452;DHT22;6291;48.924;12.204;2023-04-06T04:28:15;-1.70;1.00
12452;DHT22;6291;48.924;12.204;2023-04-06T04:33:19;-1.70;1.00
12452;DHT22;6291;48.924;12.204;2023-04-06T04:38:24;-0.80;1.00
12452;DHT22;6291;48.924;12.204;2023-04-06T04:43:32;-1.70;1.00
12452;DHT22;6291;48.924;12.204;2023-04-06T04:48:37;1.10;1.00
12452;DHT22;6291;48.924;12.204;2023-04-06T04:53:42;-1.50;1.00
12452;DHT22;6291;48.924;12.204;2023-04-06T04:58:56;-1.50;1.00
12452;DHT22;6291;48.924;12.204;2023-04-06T05:04:02;-1.10;1.00
12452;DHT22;6291;48.924;12.204;2023-04-06T05:09:06;-1.30;1.00
12452;DHT22;6291;48.924;12.204;2023-04-06T05:14:12;-1.20;1.00
12452;DHT22;6291;48.924;12.204;2023-04-06T05:19:16;-1.00;1.00
12452;DHT22;6291;48.924;12.204;2023-04-06T05:24:21;-1.00;1.00
12452;DHT22;6291;48.924;12.204;2023-04-06T05:29:26;-0.80;1.00
12452;DHT22;6291;48.924;12.204;2023-04-06T05:34:30;-0.60;1.00
12452;DHT22;6291;48.924;12.204;2023-04-06T05:39:38;-0.40;1.00
12452;DHT22;6291;48.924;12.204;2023-04-06T05:44:43;0.10;1.00
12452;DHT22;6291;48.924;12.204;2023-04-06T05:49:49;0.20;1.00
12452;DHT22;6291;48.924;12.204;2023-04-06T05:55:05;0.80;1.00
12452;DHT22;6291;48.924;12.204;2023-04-06T06:00:14;2.00;1.00
12452;DHT22;6291;48.924;12.204;2023-04-06T06:05:28;2.60;1.00
12452;DHT22;6291;48.924;12.204;2023-04-06T06:10:38;2.60;1.00
12452;DHT22;6291;48.924;12.204;2023-04-06T06:15:47;3.80;99.90
12452;DHT22;6291;48.924;12.204;2023-04-06T06:20:52;2.50;99.90
12452;DHT22;6291;48.924;12.204;2023-04-06T06:25:56;3.50;99.90
12452;DHT22;6291;48.924;12.204;2023-04-06T06:31:03;4.10;99.90
12452;DHT22;6291;48.924;12.204;2023-04-06T06:36:07;5.20;99.90
12452;DHT22;6291;48.924;12.204;2023-04-06T06:41:12;5.10;99.90
12452;DHT22;6291;48.924;12.204;2023-04-06T06:46:17;5.80;99.90
12452;DHT22;6291;48.924;12.204;2023-04-06T06:51:21;6.60;99.90
12452;DHT22;6291;48.924;12.204;2023-04-06T06:56:24;5.40;99.90
12452;DHT22;6291;48.924;12.204;2023-04-06T07:01:31;6.40;99.90
12452;DHT22;6291;48.924;12.204;2023-04-06T07:06:35;6.40;99.90
12452;DHT22;6291;48.924;12.204;2023-04-06T07:11:41;7.00;99.90
12452;DHT22;6291;48.924;12.204;2023-04-06T07:16:45;6.10;99.90
12452;DHT22;6291;48.924;12.204;2023-04-06T07:21:50;5.10;99.90
12452;DHT22;6291;48.924;12.204;2023-04-06T07:26:54;4.30;99.90
12452;DHT22;6291;48.924;12.204;2023-04-06T07:31:59;6.00;99.90
12452;DHT22;6291;48.924;12.204;2023-04-06T07:37:03;7.40;99.90
12452;DHT22;6291;48.924;12.204;2023-04-06T07:42:07;8.10;99.90
12452;DHT22;6291;48.924;12.204;2023-04-06T07:47:13;7.80;99.90
12452;DHT22;6291;48.924;12.204;2023-04-06T07:52:17;6.50;99.90
12452;DHT22;6291;48.924;12.204;2023-04-06T07:57:20;6.60;99.90
12452;DHT22;6291;48.924;12.204;2023-04-06T08:02:25;8.50;99.90
12452;DHT22;6291;48.924;12.204;2023-04-06T08:07:28;7.80;99.90
12452;DHT22;6291;48.924;12.204;2023-04-06T08:12:32;9.30;99.90
12452;DHT22;6291;48.924;12.204;2023-04-06T08:17:37;10.20;99.90
12452;DHT22;6291;48.924;12.204;2023-04-06T08:22:40;11.30;99.90
12452;DHT22;6291;48.924;12.204;2023-04-06T08:27:43;11.40;99.90
12452;DHT22;6291;48.924;12.204;2023-04-06T08:32:48;11.50;99.90
12452;DHT22;6291;48.924;12.204;2023-04-06T08:37:51;11.80;99.90
12452;DHT22;6291;48.924;12.204;2023-04-06T08:42:56;12.50;99.90
12452;DHT22;6291;48.924;12.204;2023-04-06T08:48:05;13.00;99.90
12452;DHT22;6291;48.924;12.204;2023-04-06T08:53:09;13.30;99.90
12452;DHT22;6291;48.924;12.204;2023-04-06T08:58:14;13.10;99.90
12452;DHT22;6291;48.924;12.204;2023-04-06T09:03:39;10.90;99.90
12452;DHT22;6291;48.924;12.204;2023-04-06T09:08:43;12.80;99.90
12452;DHT22;6291;48.924;12.204;2023-04-06T09:13:47;12.80;99.90
12452;DHT22;6291;48.924;12.204;2023-04-06T09:18:52;13.20;99.90
12452;DHT22;6291;48.924;12.204;2023-04-06T09:23:59;13.70;99.90
12452;DHT22;6291;48.924;12.204;2023-04-06T09:29:03;10.60;99.90
12452;DHT22;6291;48.924;12.204;2023-04-06T09:34:21;11.00;99.90
12452;DHT22;6291;48.924;12.204;2023-04-06T09:39:25;13.00;99.90
12452;DHT22;6291;48.924;12.204;2023-04-06T09:44:30;11.00;99.90
12452;DHT22;6291;48.924;12.204;2023-04-06T09:49:35;11.50;99.90
12452;DHT22;6291;48.924;12.204;2023-04-06T09:54:38;14.40;99.90
12452;DHT22;6291;48.924;12.204;2023-04-06T09:59:46;15.40;99.90
12452;DHT22;6291;48.924;12.204;2023-04-06T10:04:59;15.40;99.90
12452;DHT22;6291;48.924;12.204;2023-04-06T10:10:06;16.30;99.90
12452;DHT22;6291;48.924;12.204;2023-04-06T10:15:10;16.10;99.90
12452;DHT22;6291;48.924;12.204;2023-04-06T10:20:21;16.80;99.90
12452;DHT22;6291;48.924;12.204;2023-04-06T10:25:27;17.00;99.90
12452;DHT22;6291;48.924;12.204;2023-04-06T10:30:32;16.80;99.90
12452;DHT22;6291;48.924;12.204;2023-04-06T10:35:40;16.10;99.90
12452;DHT22;6291;48.924;12.204;2023-04-06T10:40:44;17.20;99.90
12452;DHT22;6291;48.924;12.204;2023-04-06T10:45:55;20.20;99.90
12452;DHT22;6291;48.924;12.204;2023-04-06T10:51:00;18.20;99.90
12452;DHT22;6291;48.924;12.204;2023-04-06T10:56:09;15.70;99.90
12452;DHT22;6291;48.924;12.204;2023-04-06T11:01:15;15.00;99.90
12452;DHT22;6291;48.924;12.204;2023-04-06T11:06:21;12.40;99.90
12452;DHT22;6291;48.924;12.204;2023-04-06T11:11:26;10.80;99.90
12452;DHT22;6291;48.924;12.204;2023-04-06T11:16:30;11.50;99.90
12452;DHT22;6291;48.924;12.204;2023-04-06T11:21:37;14.80;99.90
12452;DHT22;6291;48.924;12.204;2023-04-06T11:26:43;16.40;99.90
12452;DHT22;6291;48.924;12.204;2023-04-06T11:31:48;17.30;99.90
12452;DHT22;6291;48.924;12.204;2023-04-06T11:36:56;18.90;99.90
12452;DHT22;6291;48.924;12.204;2023-04-06T11:42:01;17.90;99.90
12452;DHT22;6291;48.924;12.204;2023-04-06T11:47:10;19.50;99.90
12452;DHT22;6291;48.924;12.204;2023-04-06T11:52:20;19.60;99.90
12452;DHT22;6291;48.924;12.204;2023-04-06T11:57:23;13.40;99.90
12452;DHT22;6291;48.924;12.204;2023-04-06T12:02:27;13.00;99.90
12452;DHT22;6291;48.924;12.204;2023-04-06T12:07:32;14.30;99.90
12452;DHT22;6291;48.924;12.204;2023-04-06T12:12:36;11.70;99.90
12452;DHT22;6291;48.924;12.204;2023-04-06T12:17:39;11.40;99.90
12452;DHT22;6291;48.924;12.204;2023-04-06T12:22:43;14.40;99.90
12452;DHT22;6291;48.924;12.204;2023-04-06T12:27:47;12.20;99.90
12452;DHT22;6291;48.924;12.204;2023-04-06T12:32:50;13.70;99.90
12452;DHT22;6291;48.924;12.204;2023-04-06T12:37:55;17.40;99.90
12452;DHT22;6291;48.924;12.204;2023-04-06T12:42:58;17.70;99.90
12452;DHT22;6291;48.924;12.204;2023-04-06T12:48:02;18.70;99.90
12452;DHT22;6291;48.924;12.204;2023-04-06T12:53:07;20.10;99.90
12452;DHT22;6291;48.924;12.204;2023-04-06T12:58:10;18.10;99.90
12452;DHT22;6291;48.924;12.204;2023-04-06T13:03:14;19.80;99.90
12452;DHT22;6291;48.924;12.204;2023-04-06T13:08:19;21.90;99.90
12452;DHT22;6291;48.924;12.204;2023-04-06T13:13:24;23.10;99.90
12452;DHT22;6291;48.924;12.204;2023-04-06T13:18:27;24.40;99.90
12452;DHT22;6291;48.924;12.204;2023-04-06T13:23:32;23.30;99.90
12452;DHT22;6291;48.924;12.204;2023-04-06T13:28:36;21.90;99.90
12452;DHT22;6291;48.924;12.204;2023-04-06T13:33:41;22.50;99.90
12452;DHT22;6291;48.924;12.204;2023-04-06T13:38:45;23.60;99.90
12452;DHT22;6291;48.924;12.204;2023-04-06T13:43:49;24.80;99.90
12452;DHT22;6291;48.924;12.204;2023-04-06T13:48:53;25.20;99.90
12452;DHT22;6291;48.924;12.204;2023-04-06T13:53:58;25.40;99.90
12452;DHT22;6291;48.924;12.204;2023-04-06T13:59:03;24.50;99.90
12452;DHT22;6291;48.924;12.204;2023-04-06T14:04:06;21.30;99.90
12452;DHT22;6291;48.924;12.204;2023-04-06T14:09:11;23.60;99.90
12452;DHT22;6291;48.924;12.204;2023-04-06T14:14:15;24.10;99.90
12452;DHT22;6291;48.924;12.204;2023-04-06T14:19:18;23.10;99.90
12452;DHT22;6291;48.924;12.204;2023-04-06T14:24:24;23.70;99.90
12452;DHT22;6291;48.924;12.204;2023-04-06T14:29:28;23.60;99.90
12452;DHT22;6291;48.924;12.204;2023-04-06T14:34:31;21.00;99.90
12452;DHT22;6291;48.924;12.204;2023-04-06T14:39:36;22.30;99.90
12452;DHT22;6291;48.924;12.204;2023-04-06T14:44:39;23.30;99.90
12452;DHT22;6291;48.924;12.204;2023-04-06T14:49:46;23.20;99.90
12452;DHT22;6291;48.924;12.204;2023-04-06T14:54:51;23.50;99.90
12452;DHT22;6291;48.924;12.204;2023-04-06T14:59:55;21.60;99.90
12452;DHT22;6291;48.924;12.204;2023-04-06T15:04:58;24.40;99.90
12452;DHT22;6291;48.924;12.204;2023-04-06T15:10:04;25.00;99.90
12452;DHT22;6291;48.924;12.204;2023-04-06T15:15:09;25.60;99.90
12452;DHT22;6291;48.924;12.204;2023-04-06T15:20:12;25.00;99.90
12452;DHT22;6291;48.924;12.204;2023-04-06T15:25:17;24.70;99.90
12452;DHT22;6291;48.924;12.204;2023-04-06T15:30:22;24.60;99.90
12452;DHT22;6291;48.924;12.204;2023-04-06T15:35:26;24.50;99.90
12452;DHT22;6291;48.924;12.204;2023-04-06T15:40:31;23.80;99.90
12452;DHT22;6291;48.924;12.204;2023-04-06T15:45:38;23.70;99.90
12452;DHT22;6291;48.924;12.204;2023-04-06T15:50:42;23.30;99.90
12452;DHT22;6291;48.924;12.204;2023-04-06T15:55:47;19.50;99.90
12452;DHT22;6291;48.924;12.204;2023-04-06T16:00:50;20.20;99.90
12452;DHT22;6291;48.924;12.204;2023-04-06T16:05:54;21.60;99.90
12452;DHT22;6291;48.924;12.204;2023-04-06T16:11:10;18.80;99.90
12452;DHT22;6291;48.924;12.204;2023-04-06T16:16:14;20.10;99.90
12452;DHT22;6291;48.924;12.204;2023-04-06T16:21:18;20.10;99.90
12452;DHT22;6291;48.924;12.204;2023-04-06T16:26:22;20.10;99.90
12452;DHT22;6291;48.924;12.204;2023-04-06T16:31:26;19.50;99.90
12452;DHT22;6291;48.924;12.204;2023-04-06T16:36:30;19.30;99.90
12452;DHT22;6291;48.924;12.204;2023-04-06T16:41:36;18.50;99.90
12452;DHT22;6291;48.924;12.204;2023-04-06T16:46:40;18.20;99.90
12452;DHT22;6291;48.924;12.204;2023-04-06T16:51:44;18.20;99.90
12452;DHT22;6291;48.924;12.204;2023-04-06T16:56:49;16.90;99.90
12452;DHT22;6291;48.924;12.204;2023-04-06T17:01:52;16.50;99.90
12452;DHT22;6291;48.924;12.204;2023-04-06T17:06:56;15.90;99.90
12452;DHT22;6291;48.924;12.204;2023-04-06T17:12:01;15.00;99.90
12452;DHT22;6291;48.924;12.204;2023-04-06T17:17:04;13.70;99.90
12452;DHT22;6291;48.924;12.204;2023-04-06T17:22:07;12.50;99.90
12452;DHT22;6291;48.924;12.204;2023-04-06T17:27:12;11.50;99.90
12452;DHT22;6291;48.924;12.204;2023-04-06T17:32:15;11.20;99.90
12452;DHT22;6291;48.924;12.204;2023-04-06T17:37:21;10.90;99.90
12452;DHT22;6291;48.924;12.204;2023-04-06T17:42:25;10.70;99.90
12452;DHT22;6291;48.924;12.204;2023-04-06T17:47:29;10.50;99.90
12452;DHT22;6291;48.924;12.204;2023-04-06T17:52:33;10.10;99.90
12452;DHT22;6291;48.924;12.204;2023-04-06T17:57:38;9.30;99.90
12452;DHT22;6291;48.924;12.204;2023-04-06T18:02:44;9.20;99.90
12452;DHT22;6291;48.924;12.204;2023-04-06T18:07:47;9.10;99.90
12452;DHT22;6291;48.924;12.204;2023-04-06T18:12:54;9.00;99.90
12452;DHT22;6291;48.924;12.204;2023-04-06T18:17:58;8.80;99.90
12452;DHT22;6291;48.924;12.204;2023-04-06T18:23:01;8.70;99.90
12452;DHT22;6291;48.924;12.204;2023-04-06T18:28:07;8.50;99.90
12452;DHT22;6291;48.924;12.204;2023-04-06T18:33:11;8.40;99.90
12452;DHT22;6291;48.924;12.204;2023-04-06T18:38:14;8.30;99.90
12452;DHT22;6291;48.924;12.204;2023-04-06T18:43:19;8.20;99.90
12452;DHT22;6291;48.924;12.204;2023-04-06T18:48:22;7.80;99.90
12452;DHT22;6291;48.924;12.204;2023-04-06T18:53:25;6.00;99.90
12452;DHT22;6291;48.924;12.204;2023-04-06T18:58:30;7.40;99.90
12452;DHT22;6291;48.924;12.204;2023-04-06T19:03:33;7.50;99.90
12452;DHT22;6291;48.924;12.204;2023-04-06T19:08:37;7.30;99.90
12452;DHT22;6291;48.924;12.204;2023-04-06T19:13:42;6.90;99.90
12452;DHT22;6291;48.924;12.204;2023-04-06T19:18:54;6.70;99.90
12452;DHT22;6291;48.924;12.204;2023-04-06T19:23:57;7.00;99.90
12452;DHT22;6291;48.924;12.204;2023-04-06T19:29:03;6.40;99.90
12452;DHT22;6291;48.924;12.204;2023-04-06T19:34:06;6.40;99.90
12452;DHT22;6291;48.924;12.204;2023-04-06T19:39:09;6.20;99.90
12452;DHT22;6291;48.924;12.204;2023-04-06T19:44:14;6.00;99.90
12452;DHT22;6291;48.924;12.204;2023-04-06T19:49:18;5.90;99.90
12452;DHT22;6291;48.924;12.204;2023-04-06T19:54:21;5.70;99.90
12452;DHT22;6291;48.924;12.204;2023-04-06T19:59:26;5.60;99.90
12452;DHT22;6291;48.924;12.204;2023-04-06T20:04:30;9.30;99.90
12452;DHT22;6291;48.924;12.204;2023-04-06T20:09:33;5.50;99.90
12452;DHT22;6291;48.924;12.204;2023-04-06T20:14:38;5.40;99.90
12452;DHT22;6291;48.924;12.204;2023-04-06T20:19:42;5.30;99.90
12452;DHT22;6291;48.924;12.204;2023-04-06T20:24:45;5.40;99.90
12452;DHT22;6291;48.924;12.204;2023-04-06T20:29:50;5.20;99.90
12452;DHT22;6291;48.924;12.204;2023-04-06T20:34:54;5.20;99.90
12452;DHT22;6291;48.924;12.204;2023-04-06T20:39:57;5.30;99.90
12452;DHT22;6291;48.924;12.204;2023-04-06T20:45:04;5.40;99.90
12452;DHT22;6291;48.924;12.204;2023-04-06T20:50:08;5.40;99.90
12452;DHT22;6291;48.924;12.204;2023-04-06T20:55:11;5.00;99.90
12452;DHT22;6291;48.924;12.204;2023-04-06T21:00:17;4.80;99.90
12452;DHT22;6291;48.924;12.204;2023-04-06T21:05:20;4.50;99.90
12452;DHT22;6291;48.924;12.204;2023-04-06T21:10:24;4.30;99.90
12452;DHT22;6291;48.924;12.204;2023-04-06T21:15:28;4.10;99.90
12452;DHT22;6291;48.924;12.204;2023-04-06T21:20:32;3.80;99.90
12452;DHT22;6291;48.924;12.204;2023-04-06T21:25:36;3.80;99.90
12452;DHT22;6291;48.924;12.204;2023-04-06T21:30:41;3.70;99.90
12452;DHT22;6291;48.924;12.204;2023-04-06T21:35:44;3.60;99.90
12452;DHT22;6291;48.924;12.204;2023-04-06T21:40:53;3.50;99.90
12452;DHT22;6291;48.924;12.204;2023-04-06T21:45:58;3.40;99.90
12452;DHT22;6291;48.924;12.204;2023-04-06T21:51:01;3.60;99.90
12452;DHT22;6291;48.924;12.204;2023-04-06T21:56:05;3.20;99.90
12452;DHT22;6291;48.924;12.204;2023-04-06T22:01:10;3.20;99.90
12452;DHT22;6291;48.924;12.204;2023-04-06T22:06:13;5.10;99.90
12452;DHT22;6291;48.924;12.204;2023-04-06T22:11:22;3.00;99.90
12452;DHT22;6291;48.924;12.204;2023-04-06T22:16:27;2.90;99.90
12452;DHT22;6291;48.924;12.204;2023-04-06T22:21:31;2.90;99.90
12452;DHT22;6291;48.924;12.204;2023-04-06T22:26:34;3.00;99.90
12452;DHT22;6291;48.924;12.204;2023-04-06T22:31:39;3.00;99.90
12452;DHT22;6291;48.924;12.204;2023-04-06T22:36:42;2.70;99.90
12452;DHT22;6291;48.924;12.204;2023-04-06T22:41:46;2.60;99.90
12452;DHT22;6291;48.924;12.204;2023-04-06T22:46:50;2.60;99.90
12452;DHT22;6291;48.924;12.204;2023-04-06T22:51:54;2.50;99.90
12452;DHT22;6291;48.924;12.204;2023-04-06T22:56:57;2.20;99.90
12452;DHT22;6291;48.924;12.204;2023-04-06T23:02:02;2.30;99.90
12452;DHT22;6291;48.924;12.204;2023-04-06T23:07:05;2.20;99.90
12452;DHT22;6291;48.924;12.204;2023-04-06T23:12:09;2.20;99.90
12452;DHT22;6291;48.924;12.204;2023-04-06T23:17:13;2.30;99.90
12452;DHT22;6291;48.924;12.204;2023-04-06T23:22:17;2.00;99.90
12452;DHT22;6291;48.924;12.204;2023-04-06T23:27:20;1.80;99.90
12452;DHT22;6291;48.924;12.204;2023-04-06T23:32:25;4.10;99.90
12452;DHT22;6291;48.924;12.204;2023-04-06T23:37:28;4.30;99.90
12452;DHT22;6291;48.924;12.204;2023-04-06T23:42:32;2.20;99.90
12452;DHT22;6291;48.924;12.204;2023-04-06T23:47:36;1.80;99.90
12452;DHT22;6291;48.924;12.204;2023-04-06T23:52:40;3.70;99.90
12452;DHT22;6291;48.924;12.204;2023-04-06T23:57:43;1.90;99.90
